createdAt,value
2023-03-29T00:01:01.758Z,58.30
2023-03-29T00:03:29.176Z,58.80
2023-03-29T00:06:00.195Z,59.45
2023-03-29T00:08:28.742Z,60.64
2023-03-29T00:10:56.398Z,62.40
2023-03-29T00:13:23.447Z,64.15
2023-03-29T00:15:50.308Z,64.50
2023-03-29T00:18:17.117Z,64.87
2023-03-29T00:20:44.064Z,65.75
2023-03-29T00:23:10.956Z,65.37
2023-03-29T00:25:44.759Z,65.74
2023-03-29T00:28:11.802Z,64.81
2023-03-29T00:30:38.566Z,65.90
2023-03-29T00:33:07.210Z,64.83
2023-03-29T00:35:34.355Z,65.32
2023-03-29T00:38:01.182Z,64.25
2023-03-29T00:40:28.319Z,64.65
2023-03-29T00:42:56.631Z,64.39
2023-03-29T00:45:25.267Z,64.04
2023-03-29T00:47:58.075Z,64.73
2023-03-29T00:50:30.965Z,66.26
2023-03-29T00:53:07.293Z,67.40
2023-03-29T00:55:39.879Z,67.82
2023-03-29T00:58:10.897Z,66.17
2023-03-29T01:00:45.650Z,66.77
2023-03-29T01:03:16.674Z,67.24
2023-03-29T01:05:48.384Z,67.36
2023-03-29T01:08:22.647Z,68.33
2023-03-29T01:10:56.965Z,68.77
2023-03-29T01:13:37.376Z,68.47
2023-03-29T01:16:10.406Z,70.01
2023-03-29T01:18:38.138Z,69.51
2023-03-29T01:21:21.039Z,70.11
2023-03-29T01:24:17.685Z,70.74
2023-03-29T01:27:02.909Z,70.80
2023-03-29T01:29:37.771Z,71.35
2023-03-29T01:32:11.161Z,70.98
2023-03-29T01:34:47.343Z,71.53
2023-03-29T01:37:22.187Z,71.79
2023-03-29T01:39:49.003Z,71.58
2023-03-29T01:42:42.167Z,71.85
2023-03-29T01:45:24.522Z,71.94
2023-03-29T01:47:59.634Z,72.30
2023-03-29T01:50:42.435Z,71.38
2023-03-29T01:53:16.938Z,71.25
2023-03-29T01:55:53.425Z,70.73
2023-03-29T01:58:23.349Z,72.15
2023-03-29T02:00:53.518Z,72.09
2023-03-29T02:03:26.475Z,71.79
2023-03-29T02:05:57.786Z,71.94
2023-03-29T02:08:29.952Z,71.47
2023-03-29T02:10:58.032Z,71.39
2023-03-29T02:13:24.863Z,71.89
2023-03-29T02:15:53.124Z,72.24
2023-03-29T02:18:20.768Z,71.25
2023-03-29T02:20:52.111Z,71.21
2023-03-29T02:23:26.728Z,71.79
2023-03-29T02:25:55.072Z,71.88
2023-03-29T02:28:24.523Z,71.55
2023-03-29T02:31:01.612Z,72.12
2023-03-29T02:33:43.395Z,72.35
2023-03-29T02:36:16.949Z,71.86
2023-03-29T02:38:44.569Z,71.39
2023-03-29T02:41:12.369Z,71.51
2023-03-29T02:43:42.686Z,72.22
2023-03-29T02:46:12.474Z,72.10
2023-03-29T02:48:41.042Z,72.16
2023-03-29T02:51:19.880Z,71.90
2023-03-29T02:53:56.424Z,71.94
2023-03-29T02:56:23.388Z,71.07
2023-03-29T02:58:50.446Z,70.96
2023-03-29T03:01:19.077Z,71.91
2023-03-29T03:03:46.106Z,71.66
2023-03-29T03:06:13.621Z,72.08
2023-03-29T03:08:41.643Z,71.44
2023-03-29T03:11:09.123Z,71.24
2023-03-29T03:13:36.039Z,72.30
2023-03-29T03:16:02.966Z,71.92
2023-03-29T03:18:31.584Z,71.56
2023-03-29T03:21:00.035Z,72.07
2023-03-29T03:23:28.070Z,71.82
2023-03-29T03:25:55.343Z,71.95
2023-03-29T03:28:23.108Z,72.44
2023-03-29T03:30:50.733Z,71.90
2023-03-29T03:33:17.645Z,72.39
2023-03-29T03:36:07.687Z,72.56
2023-03-29T03:38:37.290Z,72.48
2023-03-29T03:41:06.739Z,72.91
2023-03-29T03:43:34.896Z,71.71
2023-03-29T03:46:02.140Z,71.92
2023-03-29T03:48:30.426Z,71.74
2023-03-29T03:51:11.876Z,71.60
2023-03-29T03:53:40.912Z,70.97
2023-03-29T03:56:14.666Z,71.60
2023-03-29T03:59:00.789Z,71.00
2023-03-29T04:01:30.026Z,70.34
2023-03-29T04:04:07.517Z,70.94
2023-03-29T04:06:36.001Z,70.94
2023-03-29T04:09:33.005Z,70.54
2023-03-29T04:12:19.840Z,70.79
2023-03-29T04:14:46.954Z,71.45
2023-03-29T04:17:18.912Z,70.54
2023-03-29T04:19:56.342Z,70.58
2023-03-29T04:22:25.218Z,70.17
2023-03-29T04:24:53.232Z,70.59
2023-03-29T04:27:28.821Z,70.34
2023-03-29T04:29:59.887Z,70.14
2023-03-29T04:32:57.715Z,70.51
2023-03-29T04:35:25.695Z,70.26
2023-03-29T04:37:53.868Z,69.23
2023-03-29T04:40:22.604Z,69.74
2023-03-29T04:43:28.382Z,69.82
2023-03-29T04:46:03.857Z,69.72
2023-03-29T04:48:49.721Z,70.54
2023-03-29T04:51:25.638Z,70.51
2023-03-29T04:53:56.440Z,70.80
2023-03-29T04:56:23.878Z,71.16
2023-03-29T04:59:29.835Z,69.77
2023-03-29T05:01:57.212Z,70.10
2023-03-29T05:04:24.378Z,69.88
2023-03-29T05:07:03.710Z,70.06
2023-03-29T05:09:35.010Z,69.39
2023-03-29T05:12:05.552Z,70.17
2023-03-29T05:14:45.712Z,69.76
2023-03-29T05:17:12.586Z,69.88
2023-03-29T05:19:39.565Z,69.84
2023-03-29T05:22:07.763Z,69.58
2023-03-29T05:24:37.380Z,69.48
2023-03-29T05:27:11.096Z,68.34
2023-03-29T05:29:38.907Z,68.19
2023-03-29T05:32:20.518Z,67.74
2023-03-29T05:34:47.809Z,67.94
2023-03-29T05:37:15.474Z,67.55
2023-03-29T05:39:51.170Z,68.75
2023-03-29T05:42:21.211Z,69.06
2023-03-29T05:44:54.713Z,68.75
2023-03-29T05:47:22.126Z,68.25
2023-03-29T05:49:49.054Z,68.44
2023-03-29T05:52:20.732Z,67.82
2023-03-29T05:54:47.700Z,67.12
2023-03-29T05:57:16.999Z,67.17
2023-03-29T05:59:44.890Z,67.23
2023-03-29T06:02:12.496Z,68.52
2023-03-29T06:04:45.210Z,68.32
2023-03-29T06:07:24.873Z,68.90
2023-03-29T06:10:12.481Z,67.79
2023-03-29T06:12:44.841Z,67.50
2023-03-29T06:15:13.291Z,68.43
2023-03-29T06:17:49.600Z,68.13
2023-03-29T06:20:17.427Z,67.17
2023-03-29T06:22:49.277Z,66.91
2023-03-29T06:25:17.463Z,66.52
2023-03-29T06:27:47.924Z,67.11
2023-03-29T06:30:17.577Z,67.53
2023-03-29T06:32:51.092Z,67.08
2023-03-29T06:35:28.420Z,66.99
2023-03-29T06:38:04.274Z,66.01
2023-03-29T06:40:51.537Z,66.11
2023-03-29T06:43:22.043Z,66.01
2023-03-29T06:46:06.325Z,65.54
2023-03-29T06:48:44.524Z,64.99
2023-03-29T06:51:11.627Z,64.65
2023-03-29T06:53:39.765Z,64.70
2023-03-29T06:56:07.647Z,64.41
2023-03-29T06:58:37.955Z,64.02
2023-03-29T07:01:17.216Z,65.01
2023-03-29T07:03:56.091Z,64.48
2023-03-29T07:06:30.029Z,64.18
2023-03-29T07:08:57.467Z,63.55
2023-03-29T07:11:43.500Z,63.79
2023-03-29T07:14:24.973Z,62.39
2023-03-29T07:16:53.652Z,62.75
2023-03-29T07:19:29.107Z,62.04
2023-03-29T07:21:56.620Z,63.46
2023-03-29T07:24:34.499Z,63.75
2023-03-29T07:27:04.513Z,64.08
2023-03-29T07:29:34.427Z,64.02
2023-03-29T07:32:01.330Z,63.46
2023-03-29T07:34:43.452Z,62.63
2023-03-29T07:37:20.318Z,61.96
2023-03-29T07:39:47.593Z,61.39
2023-03-29T07:42:35.881Z,61.97
2023-03-29T07:45:05.296Z,62.73
2023-03-29T07:47:38.349Z,62.31
2023-03-29T07:50:08.067Z,63.12
2023-03-29T07:52:38.287Z,62.49
2023-03-29T07:55:07.607Z,62.67
2023-03-29T07:57:57.774Z,62.86
2023-03-29T08:00:28.152Z,62.62
2023-03-29T08:03:17.866Z,61.87
2023-03-29T08:05:44.908Z,62.28
2023-03-29T08:08:14.956Z,62.10
2023-03-29T08:10:57.544Z,61.05
2023-03-29T08:13:41.184Z,60.77
2023-03-29T08:16:23.136Z,60.91
2023-03-29T08:18:59.428Z,61.04
2023-03-29T08:21:39.447Z,60.24
2023-03-29T08:24:07.964Z,60.01
2023-03-29T08:26:43.716Z,59.55
2023-03-29T08:29:10.888Z,60.73
2023-03-29T08:31:39.737Z,59.00
2023-03-29T08:34:06.912Z,59.69
2023-03-29T08:37:01.218Z,59.40
2023-03-29T08:39:42.301Z,59.92
2023-03-29T08:43:19.857Z,60.51
2023-03-29T08:46:27.501Z,61.34
2023-03-29T08:49:09.236Z,60.77
2023-03-29T08:51:44.224Z,61.46
2023-03-29T08:54:18.342Z,61.45
2023-03-29T08:57:15.911Z,61.04
2023-03-29T08:59:52.393Z,59.88
2023-03-29T09:02:26.545Z,60.26
2023-03-29T09:05:15.165Z,58.80
2023-03-29T09:07:48.748Z,57.83
2023-03-29T09:10:20.697Z,56.84
2023-03-29T09:13:14.772Z,56.93
2023-03-29T09:15:58.772Z,55.92
2023-03-29T09:18:48.852Z,55.11
2023-03-29T09:21:33.707Z,56.21
2023-03-29T09:24:32.605Z,55.50
2023-03-29T09:27:12.502Z,56.31
2023-03-29T09:30:00.775Z,55.05
2023-03-29T09:32:52.944Z,53.59
2023-03-29T09:35:30.729Z,54.24
2023-03-29T09:38:11.977Z,54.20
2023-03-29T09:40:47.437Z,54.72
2023-03-29T09:43:30.104Z,53.98
2023-03-29T09:46:04.381Z,54.38
2023-03-29T09:48:40.096Z,54.07
2023-03-29T09:51:10.304Z,52.83
2023-03-29T09:53:41.098Z,51.41
2023-03-29T09:56:29.562Z,52.52
2023-03-29T09:59:13.068Z,52.37
2023-03-29T10:01:43.520Z,52.28
2023-03-29T10:04:12.158Z,49.97
2023-03-29T10:06:48.214Z,51.04
2023-03-29T10:09:20.853Z,51.00
2023-03-29T10:11:54.691Z,51.50
2023-03-29T10:14:35.487Z,52.52
2023-03-29T10:17:06.283Z,52.03
2023-03-29T10:19:35.819Z,50.34
2023-03-29T10:22:07.358Z,48.43
2023-03-29T10:24:36.084Z,46.31
2023-03-29T10:27:10.336Z,47.42
2023-03-29T10:29:41.503Z,48.13
2023-03-29T10:32:28.170Z,46.92
2023-03-29T10:35:02.905Z,46.65
2023-03-29T10:37:31.195Z,47.25
2023-03-29T10:40:00.300Z,45.31
2023-03-29T10:42:28.671Z,46.47
2023-03-29T10:44:58.305Z,46.83
2023-03-29T10:47:30.967Z,45.82
2023-03-29T10:49:58.395Z,45.04
2023-03-29T10:52:26.238Z,43.96
2023-03-29T10:54:56.476Z,45.22
2023-03-29T10:57:40.110Z,47.33
2023-03-29T11:00:20.097Z,48.16
2023-03-29T11:03:09.073Z,48.69
2023-03-29T11:05:48.708Z,48.63
2023-03-29T11:08:37.124Z,48.03
2023-03-29T11:11:23.339Z,46.97
2023-03-29T11:14:04.783Z,46.74
2023-03-29T11:16:50.948Z,46.57
2023-03-29T11:19:48.928Z,44.13
2023-03-29T11:22:27.966Z,40.68
2023-03-29T11:25:13.570Z,41.82
2023-03-29T11:27:54.124Z,41.35
2023-03-29T11:30:33.473Z,42.26
2023-03-29T11:33:31.208Z,40.90
2023-03-29T11:36:09.236Z,41.82
2023-03-29T11:38:46.907Z,44.40
2023-03-29T11:41:18.709Z,43.49
2023-03-29T11:43:54.228Z,41.04
2023-03-29T11:46:32.112Z,42.37
2023-03-29T11:49:08.812Z,40.59
2023-03-29T11:51:43.861Z,43.51
2023-03-29T11:54:21.249Z,44.38
2023-03-29T11:56:59.348Z,42.06
2023-03-29T11:59:36.416Z,42.48
2023-03-29T12:02:21.155Z,42.01
2023-03-29T12:04:53.754Z,41.38
2023-03-29T12:07:32.539Z,41.95
2023-03-29T12:10:09.190Z,41.61
2023-03-29T12:12:46.548Z,39.50
2023-03-29T12:15:20.592Z,39.18
2023-03-29T12:18:02.953Z,38.52
2023-03-29T12:20:37.494Z,36.93
2023-03-29T12:23:07.605Z,37.75
2023-03-29T12:25:53.438Z,40.79
2023-03-29T12:28:50.635Z,43.28
2023-03-29T12:31:30.366Z,43.75
2023-03-29T12:34:28.353Z,43.85
2023-03-29T12:37:16.807Z,42.60
2023-03-29T12:40:25.348Z,42.79
2023-03-29T12:43:22.984Z,43.39
2023-03-29T12:46:18.709Z,44.81
2023-03-29T12:48:51.003Z,45.24
2023-03-29T12:51:29.592Z,45.21
2023-03-29T12:54:08.356Z,45.24
2023-03-29T12:56:53.236Z,44.36
2023-03-29T12:59:34.515Z,43.41
2023-03-29T13:02:23.750Z,42.60
2023-03-29T13:04:56.714Z,42.26
2023-03-29T13:07:43.806Z,41.81
2023-03-29T13:10:36.599Z,42.04
2023-03-29T13:13:17.437Z,42.72
2023-03-29T13:15:45.716Z,42.48
2023-03-29T13:18:38.143Z,42.52
2023-03-29T13:21:20.667Z,42.69
2023-03-29T13:24:02.796Z,45.01
2023-03-29T13:26:46.971Z,43.96
2023-03-29T13:29:46.742Z,45.26
2023-03-29T13:32:46.680Z,45.03
2023-03-29T13:35:29.888Z,46.12
2023-03-29T13:38:14.303Z,44.80
2023-03-29T13:40:59.153Z,45.37
2023-03-29T13:43:37.585Z,42.73
2023-03-29T13:46:24.178Z,42.72
2023-03-29T13:49:00.541Z,42.04
2023-03-29T13:51:38.590Z,42.38
2023-03-29T13:54:26.133Z,41.17
2023-03-29T13:57:04.871Z,42.56
2023-03-29T13:59:42.776Z,43.84
2023-03-29T14:02:25.180Z,45.22
2023-03-29T14:04:53.603Z,45.19
2023-03-29T14:07:23.697Z,46.43
2023-03-29T14:09:50.869Z,46.40
2023-03-29T14:12:19.433Z,46.70
2023-03-29T14:14:58.421Z,47.33
2023-03-29T14:17:27.598Z,47.67
2023-03-29T14:19:59.102Z,47.61
2023-03-29T14:22:34.476Z,48.20
2023-03-29T14:25:07.228Z,48.25
2023-03-29T14:27:36.452Z,48.26
2023-03-29T14:30:27.173Z,48.99
2023-03-29T14:32:55.106Z,50.13
2023-03-29T14:35:31.781Z,50.69
2023-03-29T14:38:00.391Z,51.21
2023-03-29T14:40:27.350Z,52.35
2023-03-29T14:42:55.790Z,52.70
2023-03-29T14:45:23.343Z,52.76
2023-03-29T14:47:51.716Z,53.16
2023-03-29T14:50:30.149Z,52.99
2023-03-29T14:52:59.713Z,52.39
2023-03-29T14:55:27.313Z,52.61
2023-03-29T14:57:55.770Z,52.37
2023-03-29T15:00:28.544Z,52.24
2023-03-29T15:02:58.709Z,51.81
2023-03-29T15:05:36.606Z,51.90
2023-03-29T15:08:06.739Z,52.16
2023-03-29T15:10:37.384Z,52.22
2023-03-29T15:13:08.789Z,52.13
2023-03-29T15:15:39.224Z,52.25
2023-03-29T15:18:14.293Z,52.26
2023-03-29T15:20:42.577Z,51.80
2023-03-29T15:23:23.521Z,51.09
2023-03-29T15:25:56.045Z,51.30
2023-03-29T15:28:30.744Z,51.35
2023-03-29T15:31:07.879Z,51.51
2023-03-29T15:33:38.558Z,51.03
2023-03-29T15:36:09.098Z,51.33
2023-03-29T15:41:09.519Z,51.91
2023-03-29T15:43:37.921Z,53.42
2023-03-29T15:46:06.667Z,52.23
2023-03-29T15:48:35.002Z,53.08
2023-03-29T15:51:05.451Z,51.42
2023-03-29T15:53:36.150Z,50.68
2023-03-29T15:56:07.969Z,50.97
2023-03-29T15:58:37.540Z,50.41
2023-03-29T16:01:17.415Z,51.65
2023-03-29T16:03:46.268Z,51.29
2023-03-29T16:06:15.816Z,51.29
2023-03-29T16:08:44.838Z,50.36
2023-03-29T16:11:13.862Z,51.08
2023-03-29T16:13:42.224Z,50.61
2023-03-29T16:16:11.350Z,51.84
2023-03-29T16:18:38.338Z,51.38
2023-03-29T16:21:06.498Z,51.88
2023-03-29T16:23:34.230Z,53.44
2023-03-29T16:26:01.383Z,52.52
2023-03-29T16:28:28.415Z,53.05
2023-03-29T16:30:56.597Z,52.55
2023-03-29T16:33:24.696Z,52.95
2023-03-29T16:35:52.112Z,52.96
2023-03-29T16:38:20.066Z,53.66
2023-03-29T16:40:46.915Z,54.10
2023-03-29T16:43:15.905Z,54.65
2023-03-29T16:45:44.159Z,53.64
2023-03-29T16:48:15.553Z,54.86
2023-03-29T16:50:42.471Z,55.79
2023-03-29T16:53:09.492Z,56.15
2023-03-29T16:55:36.394Z,56.14
2023-03-29T16:58:03.195Z,56.82
2023-03-29T17:00:30.814Z,57.95
2023-03-29T17:02:57.759Z,58.05
2023-03-29T17:05:26.045Z,57.97
2023-03-29T17:07:53.144Z,58.44
2023-03-29T17:10:20.021Z,59.30
2023-03-29T17:12:46.905Z,59.88
2023-03-29T17:15:14.111Z,60.50
2023-03-29T17:17:41.547Z,60.10
2023-03-29T17:20:11.140Z,60.07
2023-03-29T17:22:40.209Z,60.07
2023-03-29T17:25:08.930Z,59.90
2023-03-29T17:27:36.868Z,60.36
2023-03-29T17:30:06.596Z,60.61
2023-03-29T17:32:33.904Z,60.90
2023-03-29T17:35:01.285Z,60.08
2023-03-29T17:37:29.220Z,61.17
2023-03-29T17:39:58.178Z,61.64
2023-03-29T17:42:25.004Z,62.34
2023-03-29T17:44:51.798Z,62.03
2023-03-29T17:47:20.741Z,61.85
2023-03-29T17:49:47.566Z,62.40
2023-03-29T17:52:14.331Z,62.03
2023-03-29T17:54:41.209Z,62.35
2023-03-29T17:57:11.024Z,61.22
2023-03-29T17:59:38.779Z,62.21
2023-03-29T18:02:05.751Z,61.11
2023-03-29T18:04:33.347Z,61.47
2023-03-29T18:07:00.781Z,60.79
2023-03-29T18:09:34.188Z,61.18
2023-03-29T18:12:02.476Z,60.99
2023-03-29T18:14:31.283Z,60.40
2023-03-29T18:16:58.272Z,60.62
2023-03-29T18:19:25.678Z,60.55
2023-03-29T18:21:52.651Z,60.91
2023-03-29T18:24:19.798Z,61.05
2023-03-29T18:26:46.975Z,60.47
2023-03-29T18:29:13.855Z,60.20
2023-03-29T18:31:44.102Z,59.74
2023-03-29T18:34:11.183Z,60.36
2023-03-29T18:36:38.228Z,60.45
2023-03-29T18:39:06.026Z,61.02
2023-03-29T18:41:34.640Z,60.72
2023-03-29T18:44:01.577Z,61.07
2023-03-29T18:46:29.308Z,61.21
2023-03-29T18:48:59.485Z,61.24
2023-03-29T18:51:27.399Z,60.60
2023-03-29T18:53:55.420Z,61.28
2023-03-29T18:56:22.481Z,62.19
2023-03-29T18:58:49.424Z,61.31
2023-03-29T19:01:16.442Z,61.95
2023-03-29T19:03:43.666Z,60.56
2023-03-29T19:06:12.801Z,61.59
2023-03-29T19:08:39.843Z,61.65
2023-03-29T19:11:10.609Z,61.43
2023-03-29T19:13:37.865Z,60.90
2023-03-29T19:16:05.784Z,60.47
2023-03-29T19:18:33.567Z,61.66
2023-03-29T19:21:00.555Z,61.33
2023-03-29T19:23:29.121Z,61.49
2023-03-29T19:25:59.402Z,61.25
2023-03-29T19:28:28.197Z,60.34
2023-03-29T19:30:58.148Z,60.32
2023-03-29T19:33:25.202Z,60.95
2023-03-29T19:35:52.792Z,60.85
2023-03-29T19:38:20.895Z,60.41
2023-03-29T19:40:51.600Z,59.85
2023-03-29T19:43:19.052Z,60.30
2023-03-29T19:45:48.843Z,60.77
2023-03-29T19:48:22.335Z,60.32
2023-03-29T19:50:50.003Z,60.07
2023-03-29T19:53:17.148Z,61.37
2023-03-29T19:55:44.557Z,60.63
2023-03-29T19:58:13.249Z,60.89
2023-03-29T20:00:40.156Z,60.47
2023-03-29T20:03:07.725Z,60.33
2023-03-29T20:05:35.347Z,60.29
2023-03-29T20:08:02.735Z,59.44
2023-03-29T20:10:29.851Z,60.08
2023-03-29T20:12:56.680Z,60.00
2023-03-29T20:15:25.508Z,60.63
2023-03-29T20:17:53.080Z,61.68
2023-03-29T20:20:20.721Z,59.49
2023-03-29T20:22:48.005Z,60.58
2023-03-29T20:25:15.185Z,60.46
2023-03-29T20:27:42.297Z,60.43
2023-03-29T20:30:11.044Z,60.87
2023-03-29T20:32:39.702Z,61.51
2023-03-29T20:35:08.706Z,60.72
2023-03-29T20:37:35.631Z,61.15
2023-03-29T20:40:02.929Z,61.97
2023-03-29T20:42:29.730Z,61.23
2023-03-29T20:44:56.790Z,60.96
2023-03-29T20:47:23.743Z,61.80
2023-03-29T20:49:51.994Z,62.52
2023-03-29T20:52:18.836Z,60.27
2023-03-29T20:54:47.828Z,59.53
2023-03-29T20:57:18.475Z,58.57
2023-03-29T20:59:46.852Z,58.39
2023-03-29T21:02:17.059Z,57.82
2023-03-29T21:04:44.105Z,57.15
2023-03-29T21:07:12.320Z,56.61
2023-03-29T21:09:39.413Z,56.75
2023-03-29T21:12:06.736Z,56.61
2023-03-29T21:14:33.559Z,56.63
2023-03-29T21:17:00.578Z,57.63
2023-03-29T21:19:27.968Z,57.19
2023-03-29T21:21:55.411Z,57.71
2023-03-29T21:24:23.722Z,57.79
2023-03-29T21:26:50.636Z,57.18
2023-03-29T21:29:17.389Z,57.41
2023-03-29T21:31:44.196Z,56.71
2023-03-29T21:34:11.138Z,57.54
2023-03-29T21:36:38.232Z,57.39
2023-03-29T21:39:05.199Z,57.38
2023-03-29T21:41:33.863Z,56.93
2023-03-29T21:44:00.609Z,57.22
2023-03-29T21:46:27.536Z,56.29
2023-03-29T21:48:54.386Z,55.71
2023-03-29T21:51:21.227Z,56.17
2023-03-29T21:53:48.188Z,55.06
2023-03-29T21:56:15.180Z,53.71
2023-03-29T21:58:43.391Z,53.25
2023-03-29T22:01:10.768Z,53.30
2023-03-29T22:03:38.027Z,53.20
2023-03-29T22:06:07.627Z,53.44
2023-03-29T22:08:34.594Z,52.47
2023-03-29T22:11:08.752Z,52.39
2023-03-29T22:13:35.769Z,51.85
2023-03-29T22:16:05.583Z,50.67
2023-03-29T22:18:35.844Z,50.54
2023-03-29T22:21:02.994Z,50.14
2023-03-29T22:23:29.880Z,50.48
2023-03-29T22:25:56.858Z,50.97
2023-03-29T22:28:23.599Z,51.23
2023-03-29T22:30:50.380Z,51.09
2023-03-29T22:33:18.615Z,50.73
2023-03-29T22:35:45.573Z,51.36
2023-03-29T22:38:12.402Z,50.71
2023-03-29T22:40:39.914Z,51.24
2023-03-29T22:43:06.747Z,50.63
2023-03-29T22:45:33.551Z,50.36
2023-03-29T22:48:00.442Z,49.73
2023-03-29T22:50:28.638Z,49.13
2023-03-29T22:52:55.417Z,49.23
2023-03-29T22:55:22.278Z,49.85
2023-03-29T22:57:49.138Z,49.75
2023-03-29T23:00:16.776Z,49.72
2023-03-29T23:02:43.618Z,49.80
2023-03-29T23:05:10.480Z,50.76
2023-03-29T23:07:38.883Z,50.89
2023-03-29T23:10:07.911Z,51.38
2023-03-29T23:12:34.891Z,51.44
2023-03-29T23:15:02.770Z,51.57
2023-03-29T23:17:29.746Z,51.57
2023-03-29T23:19:56.628Z,51.86
2023-03-29T23:22:23.553Z,52.02
2023-03-29T23:24:51.703Z,52.14
2023-03-29T23:27:18.967Z,51.70
2023-03-29T23:29:45.735Z,52.05
2023-03-29T23:32:13.693Z,52.60
2023-03-29T23:34:40.561Z,52.32
2023-03-29T23:37:07.624Z,52.51
2023-03-29T23:39:34.421Z,51.82
2023-03-29T23:42:02.638Z,51.31
2023-03-29T23:44:29.519Z,51.48
2023-03-29T23:46:56.328Z,51.92
2023-03-29T23:49:23.268Z,52.59
2023-03-29T23:51:50.116Z,53.06
2023-03-29T23:54:16.952Z,55.26
2023-03-29T23:56:43.760Z,55.77
2023-03-29T23:59:11.868Z,56.02
